sensor_id;sensor_type;location;lat;lon;timestamp;temperature;humidity
27759;DHT22;15148;48.972;12.794;2023-05-10T00:02:53;12.10;99.90
27759;DHT22;15148;48.972;12.794;2023-05-10T00:07:55;12.10;99.90
27759;DHT22;15148;48.972;12.794;2023-05-10T00:12:56;12.10;99.90
27759;DHT22;15148;48.972;12.794;2023-05-10T00:17:58;12.10;99.90
27759;DHT22;15148;48.972;12.794;2023-05-10T00:23:00;12.20;99.90
27759;DHT22;15148;48.972;12.794;2023-05-10T00:28:02;12.20;99.90
27759;DHT22;15148;48.972;12.794;2023-05-10T00:33:04;12.30;99.90
27759;DHT22;15148;48.972;12.794;2023-05-10T00:38:06;12.30;99.90
27759;DHT22;15148;48.972;12.794;2023-05-10T00:43:08;12.30;99.90
27759;DHT22;15148;48.972;12.794;2023-05-10T00:48:10;12.30;99.90
27759;DHT22;15148;48.972;12.794;2023-05-10T00:53:12;12.30;99.90
27759;DHT22;15148;48.972;12.794;2023-05-10T00:58:14;12.30;99.90
27759;DHT22;15148;48.972;12.794;2023-05-10T01:03:16;12.20;99.90
27759;DHT22;15148;48.972;12.794;2023-05-10T01:08:19;12.30;99.90
27759;DHT22;15148;48.972;12.794;2023-05-10T01:13:34;12.20;99.90
27759;DHT22;15148;48.972;12.794;2023-05-10T01:18:39;12.20;99.90
27759;DHT22;15148;48.972;12.794;2023-05-10T01:29:42;12.20;99.90
27759;DHT22;15148;48.972;12.794;2023-05-10T01:34:35;12.20;99.90
27759;DHT22;15148;48.972;12.794;2023-05-10T01:39:50;12.20;99.90
27759;DHT22;15148;48.972;12.794;2023-05-10T01:44:58;12.20;99.90
27759;DHT22;15148;48.972;12.794;2023-05-10T01:50:02;12.20;99.90
27759;DHT22;15148;48.972;12.794;2023-05-10T01:55:06;12.20;99.90
27759;DHT22;15148;48.972;12.794;2023-05-10T02:00:10;12.20;99.90
27759;DHT22;15148;48.972;12.794;2023-05-10T02:05:16;12.30;99.90
27759;DHT22;15148;48.972;12.794;2023-05-10T02:10:19;12.30;99.90
27759;DHT22;15148;48.972;12.794;2023-05-10T02:15:23;12.20;99.90
27759;DHT22;15148;48.972;12.794;2023-05-10T02:20:27;12.20;99.90
27759;DHT22;15148;48.972;12.794;2023-05-10T02:25:29;12.20;99.90
27759;DHT22;15148;48.972;12.794;2023-05-10T02:30:34;12.20;99.90
27759;DHT22;15148;48.972;12.794;2023-05-10T02:35:37;12.20;99.90
27759;DHT22;15148;48.972;12.794;2023-05-10T02:40:40;12.20;99.90
27759;DHT22;15148;48.972;12.794;2023-05-10T02:45:43;12.30;99.90
27759;DHT22;15148;48.972;12.794;2023-05-10T02:50:47;12.10;99.90
27759;DHT22;15148;48.972;12.794;2023-05-10T02:55:57;12.20;99.90
27759;DHT22;15148;48.972;12.794;2023-05-10T03:01:00;12.10;99.90
27759;DHT22;15148;48.972;12.794;2023-05-10T03:06:02;12.20;99.90
27759;DHT22;15148;48.972;12.794;2023-05-10T03:16:30;12.30;99.90
27759;DHT22;15148;48.972;12.794;2023-05-10T03:21:37;12.30;99.90
27759;DHT22;15148;48.972;12.794;2023-05-10T03:26:43;12.30;99.90
27759;DHT22;15148;48.972;12.794;2023-05-10T03:31:50;12.20;99.90
27759;DHT22;15148;48.972;12.794;2023-05-10T03:36:52;12.20;99.90
27759;DHT22;15148;48.972;12.794;2023-05-10T03:41:54;12.20;99.90
27759;DHT22;15148;48.972;12.794;2023-05-10T03:46:56;12.30;99.90
27759;DHT22;15148;48.972;12.794;2023-05-10T03:51:59;12.30;99.90
27759;DHT22;15148;48.972;12.794;2023-05-10T03:57:01;12.30;99.90
27759;DHT22;15148;48.972;12.794;2023-05-10T04:02:05;12.30;99.90
27759;DHT22;15148;48.972;12.794;2023-05-10T04:07:07;12.30;99.90
27759;DHT22;15148;48.972;12.794;2023-05-10T04:12:08;12.40;99.90
27759;DHT22;15148;48.972;12.794;2023-05-10T04:17:11;12.30;99.90
27759;DHT22;15148;48.972;12.794;2023-05-10T04:22:13;12.30;99.90
27759;DHT22;15148;48.972;12.794;2023-05-10T04:27:15;12.30;99.90
27759;DHT22;15148;48.972;12.794;2023-05-10T04:32:17;12.30;99.90
27759;DHT22;15148;48.972;12.794;2023-05-10T04:37:19;12.30;99.90
27759;DHT22;15148;48.972;12.794;2023-05-10T04:42:22;12.30;99.90
27759;DHT22;15148;48.972;12.794;2023-05-10T04:47:24;12.30;99.90
27759;DHT22;15148;48.972;12.794;2023-05-10T04:52:26;12.40;99.90
27759;DHT22;15148;48.972;12.794;2023-05-10T04:57:28;12.30;99.90
27759;DHT22;15148;48.972;12.794;2023-05-10T05:02:29;12.30;99.90
27759;DHT22;15148;48.972;12.794;2023-05-10T05:07:32;12.20;99.90
27759;DHT22;15148;48.972;12.794;2023-05-10T05:12:34;12.20;99.90
27759;DHT22;15148;48.972;12.794;2023-05-10T05:17:36;12.30;99.90
27759;DHT22;15148;48.972;12.794;2023-05-10T05:22:38;12.30;99.90
27759;DHT22;15148;48.972;12.794;2023-05-10T05:27:42;12.30;99.90
27759;DHT22;15148;48.972;12.794;2023-05-10T05:32:43;12.30;99.90
27759;DHT22;15148;48.972;12.794;2023-05-10T05:37:45;12.30;99.90
27759;DHT22;15148;48.972;12.794;2023-05-10T05:42:48;12.40;99.90
27759;DHT22;15148;48.972;12.794;2023-05-10T05:47:50;12.40;99.90
27759;DHT22;15148;48.972;12.794;2023-05-10T05:52:52;12.30;99.90
27759;DHT22;15148;48.972;12.794;2023-05-10T05:57:54;12.30;99.90
27759;DHT22;15148;48.972;12.794;2023-05-10T06:02:56;12.20;99.90
27759;DHT22;15148;48.972;12.794;2023-05-10T06:07:59;12.00;99.90
27759;DHT22;15148;48.972;12.794;2023-05-10T06:13:02;12.10;99.90
27759;DHT22;15148;48.972;12.794;2023-05-10T06:18:04;12.20;99.90
27759;DHT22;15148;48.972;12.794;2023-05-10T06:23:07;12.20;99.90
27759;DHT22;15148;48.972;12.794;2023-05-10T06:28:08;12.20;99.90
27759;DHT22;15148;48.972;12.794;2023-05-10T06:33:10;12.30;99.90
27759;DHT22;15148;48.972;12.794;2023-05-10T06:38:12;12.30;99.90
27759;DHT22;15148;48.972;12.794;2023-05-10T06:43:14;12.20;99.90
27759;DHT22;15148;48.972;12.794;2023-05-10T06:48:16;12.10;99.90
27759;DHT22;15148;48.972;12.794;2023-05-10T06:53:18;12.10;99.90
27759;DHT22;15148;48.972;12.794;2023-05-10T06:58:20;12.10;99.90
27759;DHT22;15148;48.972;12.794;2023-05-10T07:03:22;12.20;99.90
27759;DHT22;15148;48.972;12.794;2023-05-10T07:08:24;12.20;99.90
27759;DHT22;15148;48.972;12.794;2023-05-10T07:13:26;12.20;99.90
27759;DHT22;15148;48.972;12.794;2023-05-10T07:18:28;12.20;99.90
27759;DHT22;15148;48.972;12.794;2023-05-10T07:23:30;12.30;99.90
27759;DHT22;15148;48.972;12.794;2023-05-10T07:28:32;12.50;99.90
27759;DHT22;15148;48.972;12.794;2023-05-10T07:33:34;12.60;99.90
27759;DHT22;15148;48.972;12.794;2023-05-10T07:38:36;12.60;99.90
27759;DHT22;15148;48.972;12.794;2023-05-10T07:43:41;12.70;99.90
27759;DHT22;15148;48.972;12.794;2023-05-10T07:48:43;12.70;99.90
27759;DHT22;15148;48.972;12.794;2023-05-10T07:53:45;12.70;99.90
27759;DHT22;15148;48.972;12.794;2023-05-10T07:58:46;12.70;99.90
27759;DHT22;15148;48.972;12.794;2023-05-10T08:03:49;12.60;99.90
27759;DHT22;15148;48.972;12.794;2023-05-10T08:08:52;12.60;99.90
27759;DHT22;15148;48.972;12.794;2023-05-10T08:13:55;12.60;99.90
27759;DHT22;15148;48.972;12.794;2023-05-10T08:18:57;12.60;99.90
27759;DHT22;15148;48.972;12.794;2023-05-10T08:23:59;12.50;99.90
27759;DHT22;15148;48.972;12.794;2023-05-10T08:29:01;12.60;99.90
27759;DHT22;15148;48.972;12.794;2023-05-10T08:34:02;12.60;99.90
27759;DHT22;15148;48.972;12.794;2023-05-10T08:39:04;12.60;99.90
27759;DHT22;15148;48.972;12.794;2023-05-10T08:44:17;12.50;99.90
27759;DHT22;15148;48.972;12.794;2023-05-10T08:49:20;12.60;99.90
27759;DHT22;15148;48.972;12.794;2023-05-10T08:54:23;12.70;99.90
27759;DHT22;15148;48.972;12.794;2023-05-10T08:59:26;12.80;99.90
27759;DHT22;15148;48.972;12.794;2023-05-10T09:04:29;13.00;99.90
27759;DHT22;15148;48.972;12.794;2023-05-10T09:09:31;13.10;99.90
27759;DHT22;15148;48.972;12.794;2023-05-10T09:14:35;13.20;99.90
27759;DHT22;15148;48.972;12.794;2023-05-10T09:19:37;13.30;99.90
27759;DHT22;15148;48.972;12.794;2023-05-10T09:24:39;13.40;99.90
27759;DHT22;15148;48.972;12.794;2023-05-10T09:29:46;13.30;99.90
27759;DHT22;15148;48.972;12.794;2023-05-10T09:34:49;13.30;99.90
27759;DHT22;15148;48.972;12.794;2023-05-10T09:39:54;13.30;99.90
27759;DHT22;15148;48.972;12.794;2023-05-10T09:45:03;13.40;99.90
27759;DHT22;15148;48.972;12.794;2023-05-10T09:50:05;13.50;99.90
27759;DHT22;15148;48.972;12.794;2023-05-10T09:55:08;13.60;99.90
27759;DHT22;15148;48.972;12.794;2023-05-10T10:00:10;13.70;99.90
27759;DHT22;15148;48.972;12.794;2023-05-10T10:05:15;13.80;99.90
27759;DHT22;15148;48.972;12.794;2023-05-10T10:10:17;13.80;99.90
27759;DHT22;15148;48.972;12.794;2023-05-10T10:15:21;14.00;99.90
27759;DHT22;15148;48.972;12.794;2023-05-10T10:20:23;14.10;99.90
27759;DHT22;15148;48.972;12.794;2023-05-10T10:25:27;14.10;99.90
27759;DHT22;15148;48.972;12.794;2023-05-10T10:30:46;14.20;99.90
27759;DHT22;15148;48.972;12.794;2023-05-10T10:35:48;14.20;99.90
27759;DHT22;15148;48.972;12.794;2023-05-10T10:41:09;14.20;99.90
27759;DHT22;15148;48.972;12.794;2023-05-10T10:46:16;14.30;99.90
27759;DHT22;15148;48.972;12.794;2023-05-10T10:51:19;14.40;99.90
27759;DHT22;15148;48.972;12.794;2023-05-10T10:56:22;14.40;99.90
27759;DHT22;15148;48.972;12.794;2023-05-10T11:01:33;14.30;99.90
27759;DHT22;15148;48.972;12.794;2023-05-10T11:06:35;14.30;99.90
27759;DHT22;15148;48.972;12.794;2023-05-10T11:11:58;14.30;99.90
27759;DHT22;15148;48.972;12.794;2023-05-10T11:17:01;14.30;99.90
27759;DHT22;15148;48.972;12.794;2023-05-10T11:27:05;14.40;99.90
27759;DHT22;15148;48.972;12.794;2023-05-10T11:32:07;14.60;99.90
27759;DHT22;15148;48.972;12.794;2023-05-10T11:37:09;14.70;99.90
27759;DHT22;15148;48.972;12.794;2023-05-10T11:42:12;14.90;99.90
27759;DHT22;15148;48.972;12.794;2023-05-10T11:47:14;15.00;99.90
27759;DHT22;15148;48.972;12.794;2023-05-10T11:52:15;15.10;99.90
27759;DHT22;15148;48.972;12.794;2023-05-10T11:57:25;15.20;99.90
27759;DHT22;15148;48.972;12.794;2023-05-10T12:02:29;15.40;99.90
27759;DHT22;15148;48.972;12.794;2023-05-10T12:07:31;15.30;99.90
27759;DHT22;15148;48.972;12.794;2023-05-10T12:12:40;15.30;99.90
27759;DHT22;15148;48.972;12.794;2023-05-10T12:17:44;15.30;99.90
27759;DHT22;15148;48.972;12.794;2023-05-10T12:22:51;15.20;99.90
27759;DHT22;15148;48.972;12.794;2023-05-10T12:27:56;15.20;99.90
27759;DHT22;15148;48.972;12.794;2023-05-10T12:33:11;15.20;99.90
27759;DHT22;15148;48.972;12.794;2023-05-10T12:38:27;15.30;99.90
27759;DHT22;15148;48.972;12.794;2023-05-10T12:43:32;15.40;99.90
27759;DHT22;15148;48.972;12.794;2023-05-10T12:48:35;15.20;99.90
27759;DHT22;15148;48.972;12.794;2023-05-10T12:53:37;15.20;99.90
27759;DHT22;15148;48.972;12.794;2023-05-10T12:58:41;15.20;99.90
27759;DHT22;15148;48.972;12.794;2023-05-10T13:03:42;15.40;99.90
27759;DHT22;15148;48.972;12.794;2023-05-10T13:08:45;15.50;99.90
27759;DHT22;15148;48.972;12.794;2023-05-10T13:13:46;15.70;99.90
27759;DHT22;15148;48.972;12.794;2023-05-10T13:18:48;15.80;99.90
27759;DHT22;15148;48.972;12.794;2023-05-10T13:23:50;16.00;99.90
27759;DHT22;15148;48.972;12.794;2023-05-10T13:28:52;16.10;99.90
27759;DHT22;15148;48.972;12.794;2023-05-10T13:33:54;16.10;99.90
27759;DHT22;15148;48.972;12.794;2023-05-10T13:38:57;16.10;99.90
27759;DHT22;15148;48.972;12.794;2023-05-10T13:43:59;16.10;99.90
27759;DHT22;15148;48.972;12.794;2023-05-10T13:49:00;16.20;99.90
27759;DHT22;15148;48.972;12.794;2023-05-10T13:54:02;16.20;99.90
27759;DHT22;15148;48.972;12.794;2023-05-10T13:59:05;16.30;99.90
27759;DHT22;15148;48.972;12.794;2023-05-10T14:04:09;16.20;99.90
27759;DHT22;15148;48.972;12.794;2023-05-10T14:09:12;16.00;99.90
27759;DHT22;15148;48.972;12.794;2023-05-10T14:14:14;15.90;99.90
27759;DHT22;15148;48.972;12.794;2023-05-10T14:19:16;15.90;99.90
27759;DHT22;15148;48.972;12.794;2023-05-10T14:24:17;16.00;99.90
27759;DHT22;15148;48.972;12.794;2023-05-10T14:29:21;16.10;99.90
27759;DHT22;15148;48.972;12.794;2023-05-10T14:34:24;16.30;99.90
27759;DHT22;15148;48.972;12.794;2023-05-10T14:39:26;16.30;99.90
27759;DHT22;15148;48.972;12.794;2023-05-10T14:44:31;16.30;99.90
27759;DHT22;15148;48.972;12.794;2023-05-10T14:49:33;16.40;99.90
27759;DHT22;15148;48.972;12.794;2023-05-10T14:54:34;16.30;99.90
27759;DHT22;15148;48.972;12.794;2023-05-10T14:59:36;16.30;99.90
27759;DHT22;15148;48.972;12.794;2023-05-10T15:04:39;16.20;99.90
27759;DHT22;15148;48.972;12.794;2023-05-10T15:09:41;16.10;99.90
27759;DHT22;15148;48.972;12.794;2023-05-10T15:14:43;15.90;99.90
27759;DHT22;15148;48.972;12.794;2023-05-10T15:19:45;15.80;99.90
27759;DHT22;15148;48.972;12.794;2023-05-10T15:24:47;15.60;99.90
27759;DHT22;15148;48.972;12.794;2023-05-10T15:29:49;15.60;99.90
27759;DHT22;15148;48.972;12.794;2023-05-10T15:34:51;15.60;99.90
27759;DHT22;15148;48.972;12.794;2023-05-10T15:39:53;15.50;99.90
27759;DHT22;15148;48.972;12.794;2023-05-10T15:44:58;15.50;99.90
27759;DHT22;15148;48.972;12.794;2023-05-10T15:50:00;15.50;99.90
27759;DHT22;15148;48.972;12.794;2023-05-10T15:55:02;15.50;99.90
27759;DHT22;15148;48.972;12.794;2023-05-10T16:00:06;15.40;99.90
27759;DHT22;15148;48.972;12.794;2023-05-10T16:05:12;15.40;99.90
27759;DHT22;15148;48.972;12.794;2023-05-10T16:10:14;15.40;99.90
27759;DHT22;15148;48.972;12.794;2023-05-10T16:15:17;15.40;99.90
27759;DHT22;15148;48.972;12.794;2023-05-10T16:20:19;15.30;99.90
27759;DHT22;15148;48.972;12.794;2023-05-10T16:25:21;15.30;99.90
27759;DHT22;15148;48.972;12.794;2023-05-10T16:30:23;15.20;99.90
27759;DHT22;15148;48.972;12.794;2023-05-10T16:35:27;15.20;99.90
27759;DHT22;15148;48.972;12.794;2023-05-10T16:40:31;15.10;99.90
27759;DHT22;15148;48.972;12.794;2023-05-10T16:45:33;15.10;99.90
27759;DHT22;15148;48.972;12.794;2023-05-10T16:50:35;15.10;99.90
27759;DHT22;15148;48.972;12.794;2023-05-10T16:55:37;15.00;99.90
27759;DHT22;15148;48.972;12.794;2023-05-10T17:00:39;15.00;99.90
27759;DHT22;15148;48.972;12.794;2023-05-10T17:05:41;15.00;99.90
27759;DHT22;15148;48.972;12.794;2023-05-10T17:10:43;15.00;99.90
27759;DHT22;15148;48.972;12.794;2023-05-10T17:15:45;14.90;99.90
27759;DHT22;15148;48.972;12.794;2023-05-10T17:20:51;14.80;99.90
27759;DHT22;15148;48.972;12.794;2023-05-10T17:25:53;14.80;99.90
27759;DHT22;15148;48.972;12.794;2023-05-10T17:30:56;14.70;99.90
27759;DHT22;15148;48.972;12.794;2023-05-10T17:35:58;14.60;99.90
27759;DHT22;15148;48.972;12.794;2023-05-10T17:41:00;14.50;99.90
27759;DHT22;15148;48.972;12.794;2023-05-10T17:46:02;14.40;99.90
27759;DHT22;15148;48.972;12.794;2023-05-10T17:51:04;14.40;99.90
27759;DHT22;15148;48.972;12.794;2023-05-10T17:56:07;14.30;99.90
27759;DHT22;15148;48.972;12.794;2023-05-10T18:01:09;14.30;99.90
27759;DHT22;15148;48.972;12.794;2023-05-10T18:06:11;14.20;99.90
27759;DHT22;15148;48.972;12.794;2023-05-10T18:11:13;14.10;99.90
27759;DHT22;15148;48.972;12.794;2023-05-10T18:16:15;14.00;99.90
27759;DHT22;15148;48.972;12.794;2023-05-10T18:21:17;14.00;99.90
27759;DHT22;15148;48.972;12.794;2023-05-10T18:26:19;13.90;99.90
27759;DHT22;15148;48.972;12.794;2023-05-10T18:31:20;13.90;99.90
27759;DHT22;15148;48.972;12.794;2023-05-10T18:36:22;13.80;99.90
27759;DHT22;15148;48.972;12.794;2023-05-10T18:41:24;13.70;99.90
27759;DHT22;15148;48.972;12.794;2023-05-10T18:46:29;13.60;99.90
27759;DHT22;15148;48.972;12.794;2023-05-10T18:51:31;13.60;99.90
27759;DHT22;15148;48.972;12.794;2023-05-10T18:56:32;13.60;99.90
27759;DHT22;15148;48.972;12.794;2023-05-10T19:01:34;13.50;99.90
27759;DHT22;15148;48.972;12.794;2023-05-10T19:06:36;13.40;99.90
27759;DHT22;15148;48.972;12.794;2023-05-10T19:11:39;13.40;99.90
27759;DHT22;15148;48.972;12.794;2023-05-10T19:16:40;13.30;99.90
27759;DHT22;15148;48.972;12.794;2023-05-10T19:21:43;13.30;99.90
27759;DHT22;15148;48.972;12.794;2023-05-10T19:26:47;13.20;99.90
27759;DHT22;15148;48.972;12.794;2023-05-10T19:31:49;13.20;99.90
27759;DHT22;15148;48.972;12.794;2023-05-10T19:36:53;13.20;99.90
27759;DHT22;15148;48.972;12.794;2023-05-10T19:41:55;13.20;99.90
27759;DHT22;15148;48.972;12.794;2023-05-10T19:46:56;13.10;99.90
27759;DHT22;15148;48.972;12.794;2023-05-10T19:51:59;13.10;99.90
27759;DHT22;15148;48.972;12.794;2023-05-10T19:57:01;13.10;99.90
27759;DHT22;15148;48.972;12.794;2023-05-10T20:02:03;13.10;99.90
27759;DHT22;15148;48.972;12.794;2023-05-10T20:07:04;13.00;99.90
27759;DHT22;15148;48.972;12.794;2023-05-10T20:12:06;13.00;99.90
27759;DHT22;15148;48.972;12.794;2023-05-10T20:17:08;13.00;99.90
27759;DHT22;15148;48.972;12.794;2023-05-10T20:22:10;12.90;99.90
27759;DHT22;15148;48.972;12.794;2023-05-10T20:27:12;12.90;99.90
27759;DHT22;15148;48.972;12.794;2023-05-10T20:32:13;13.00;99.90
27759;DHT22;15148;48.972;12.794;2023-05-10T20:37:15;12.90;99.90
27759;DHT22;15148;48.972;12.794;2023-05-10T20:42:18;12.90;99.90
27759;DHT22;15148;48.972;12.794;2023-05-10T20:47:20;12.90;99.90
27759;DHT22;15148;48.972;12.794;2023-05-10T20:52:24;13.00;99.90
27759;DHT22;15148;48.972;12.794;2023-05-10T20:57:25;12.90;99.90
27759;DHT22;15148;48.972;12.794;2023-05-10T21:02:27;12.80;99.90
27759;DHT22;15148;48.972;12.794;2023-05-10T21:07:29;12.90;99.90
27759;DHT22;15148;48.972;12.794;2023-05-10T21:12:33;12.90;99.90
27759;DHT22;15148;48.972;12.794;2023-05-10T21:17:35;12.90;99.90
27759;DHT22;15148;48.972;12.794;2023-05-10T21:22:37;12.80;99.90
27759;DHT22;15148;48.972;12.794;2023-05-10T21:27:39;12.80;99.90
27759;DHT22;15148;48.972;12.794;2023-05-10T21:32:41;12.80;99.90
27759;DHT22;15148;48.972;12.794;2023-05-10T21:37:43;12.90;99.90
27759;DHT22;15148;48.972;12.794;2023-05-10T21:42:45;12.90;99.90
27759;DHT22;15148;48.972;12.794;2023-05-10T21:47:50;12.80;99.90
27759;DHT22;15148;48.972;12.794;2023-05-10T21:52:52;12.80;99.90
27759;DHT22;15148;48.972;12.794;2023-05-10T21:57:53;12.80;99.90
27759;DHT22;15148;48.972;12.794;2023-05-10T22:02:55;12.80;99.90
27759;DHT22;15148;48.972;12.794;2023-05-10T22:07:57;12.70;99.90
27759;DHT22;15148;48.972;12.794;2023-05-10T22:12:59;12.80;99.90
27759;DHT22;15148;48.972;12.794;2023-05-10T22:18:01;12.70;99.90
27759;DHT22;15148;48.972;12.794;2023-05-10T22:23:03;12.70;99.90
27759;DHT22;15148;48.972;12.794;2023-05-10T22:28:05;12.70;99.90
27759;DHT22;15148;48.972;12.794;2023-05-10T22:33:08;12.70;99.90
27759;DHT22;15148;48.972;12.794;2023-05-10T22:38:10;12.60;99.90
27759;DHT22;15148;48.972;12.794;2023-05-10T22:43:11;12.70;99.90
27759;DHT22;15148;48.972;12.794;2023-05-10T22:48:14;12.60;99.90
27759;DHT22;15148;48.972;12.794;2023-05-10T22:53:16;12.60;99.90
27759;DHT22;15148;48.972;12.794;2023-05-10T22:58:18;12.60;99.90
27759;DHT22;15148;48.972;12.794;2023-05-10T23:03:20;12.60;99.90
27759;DHT22;15148;48.972;12.794;2023-05-10T23:08:22;12.50;99.90
27759;DHT22;15148;48.972;12.794;2023-05-10T23:13:24;12.50;99.90
27759;DHT22;15148;48.972;12.794;2023-05-10T23:18:26;12.50;99.90
27759;DHT22;15148;48.972;12.794;2023-05-10T23:23:30;12.50;99.90
27759;DHT22;15148;48.972;12.794;2023-05-10T23:28:34;12.50;99.90
27759;DHT22;15148;48.972;12.794;2023-05-10T23:33:36;12.50;99.90
27759;DHT22;15148;48.972;12.794;2023-05-10T23:38:38;12.40;99.90
27759;DHT22;15148;48.972;12.794;2023-05-10T23:43:40;12.40;99.90
27759;DHT22;15148;48.972;12.794;2023-05-10T23:48:42;12.40;99.90
27759;DHT22;15148;48.972;12.794;2023-05-10T23:53:43;12.40;99.90
27759;DHT22;15148;48.972;12.794;2023-05-10T23:58:45;12.40;99.90
